Time;durP1;ratioP1;P1;durP2;ratioP2;P2;SDS_P1;SDS_P2;PMS_P1;PMS_P2;Temp;Humidity;BMP_temperature;BMP_pressure;BME280_temperature;BME280_humidity;BME280_pressure;Samples;Min_cycle;Max_cycle;Signal;HPM_P1;HPM_P2
2022/07/05 00:00:12;;;;;;;5.78;2.15;;;;;;;;;;5033866;28;20080;-62
2022/07/05 00:02:37;;;;;;;4.78;2.35;;;;;;;;;;5036030;28;20037;-62
2022/07/05 00:05:03;;;;;;;2.97;2.33;;;;;;;;;;5033225;28;20025;-62
2022/07/05 00:07:28;;;;;;;4.70;2.10;;;;;;;;;;5023643;28;20038;-62
2022/07/05 00:09:56;;;;;;;5.10;2.35;;;;;;;;;;5030034;28;20036;-62
2022/07/05 00:12:24;;;;;;;3.05;2.22;;;;;;;;;;5033212;28;20068;-62
2022/07/05 00:14:50;;;;;;;4.35;2.30;;;;;;;;;;5031277;28;20044;-63
2022/07/05 00:17:16;;;;;;;3.97;2.40;;;;;;;;;;5021048;28;20038;-62
2022/07/05 00:19:42;;;;;;;3.70;2.20;;;;;;;;;;5032641;28;20072;-62
2022/07/05 00:22:07;;;;;;;3.47;2.35;;;;;;;;;;5031640;28;20029;-62
2022/07/05 00:24:33;;;;;;;3.30;2.35;;;;;;;;;;5029030;28;20040;-62
2022/07/05 00:26:58;;;;;;;4.68;2.40;;;;;;;;;;5031397;28;20103;-62
2022/07/05 00:29:24;;;;;;;5.88;2.83;;;;;;;;;;5031645;28;20041;-62
2022/07/05 00:31:49;;;;;;;4.38;2.40;;;;;;;;;;5028683;28;20033;-62
2022/07/05 00:34:14;;;;;;;3.78;2.50;;;;;;;;;;5022149;28;20116;-62
2022/07/05 00:36:40;;;;;;;3.88;2.40;;;;;;;;;;5030142;28;20453;-62
2022/07/05 00:39:06;;;;;;;7.60;2.55;;;;;;;;;;5029674;28;20112;-63
2022/07/05 00:41:31;;;;;;;4.90;2.30;;;;;;;;;;5032464;28;20029;-62
2022/07/05 00:44:02;;;;;;;4.22;2.40;;;;;;;;;;5028756;28;20037;-63
2022/07/05 00:46:28;;;;;;;3.33;2.70;;;;;;;;;;5031887;28;20087;-63
2022/07/05 00:48:54;;;;;;;5.68;2.40;;;;;;;;;;5030859;28;20124;-63
2022/07/05 00:51:22;;;;;;;4.65;2.42;;;;;;;;;;5022866;28;20029;-63
2022/07/05 00:53:49;;;;;;;3.85;2.30;;;;;;;;;;5016873;28;20037;-63
2022/07/05 00:56:15;;;;;;;3.10;2.30;;;;;;;;;;5033052;28;20032;-62
2022/07/05 00:58:40;;;;;;;3.13;2.33;;;;;;;;;;5028212;28;20057;-63
2022/07/05 01:01:08;;;;;;;3.95;2.40;;;;;;;;;;5031057;28;20075;-63
2022/07/05 01:03:34;;;;;;;3.60;2.40;;;;;;;;;;5017956;28;20143;-62
2022/07/05 01:06:06;;;;;;;4.20;2.40;;;;;;;;;;5021822;28;20030;-63
2022/07/05 01:08:35;;;;;;;7.95;2.40;;;;;;;;;;5032654;28;20108;-63
2022/07/05 01:11:01;;;;;;;4.10;2.40;;;;;;;;;;5029179;28;20126;-63
2022/07/05 01:13:27;;;;;;;4.00;2.33;;;;;;;;;;5031848;28;20048;-62
2022/07/05 01:15:54;;;;;;;3.10;2.40;;;;;;;;;;5029111;28;20026;-63
2022/07/05 01:18:20;;;;;;;5.22;2.40;;;;;;;;;;5027544;28;20044;-62
2022/07/05 01:20:48;;;;;;;3.55;2.20;;;;;;;;;;5029175;28;20037;-63
2022/07/05 01:23:15;;;;;;;4.00;2.30;;;;;;;;;;5026982;28;20473;-63
2022/07/05 01:25:41;;;;;;;5.70;2.30;;;;;;;;;;5032748;28;20101;-62
2022/07/05 01:28:07;;;;;;;4.47;2.40;;;;;;;;;;5028789;28;20021;-63
2022/07/05 01:30:34;;;;;;;3.17;2.30;;;;;;;;;;5031120;28;20434;-63
2022/07/05 01:33:00;;;;;;;9.13;2.70;;;;;;;;;;5029281;28;20033;-63
2022/07/05 01:35:26;;;;;;;4.93;2.55;;;;;;;;;;5024958;28;20030;-62
2022/07/05 01:37:52;;;;;;;3.20;2.22;;;;;;;;;;5022239;28;20485;-63
2022/07/05 01:40:19;;;;;;;2.88;2.20;;;;;;;;;;5023992;28;20044;-63
2022/07/05 01:42:46;;;;;;;4.18;2.47;;;;;;;;;;5030361;28;20091;-63
2022/07/05 01:45:11;;;;;;;5.05;2.20;;;;;;;;;;5030849;28;20033;-63
2022/07/05 01:47:40;;;;;;;4.13;2.60;;;;;;;;;;5026391;28;20102;-63
2022/07/05 01:50:08;;;;;;;4.82;2.20;;;;;;;;;;5030906;28;20053;-63
2022/07/05 01:52:36;;;;;;;3.63;2.28;;;;;;;;;;5023580;28;20034;-63
2022/07/05 01:55:03;;;;;;;5.45;2.38;;;;;;;;;;5023821;28;20029;-63
2022/07/05 01:57:29;;;;;;;5.20;2.83;;;;;;;;;;5026365;28;20111;-63
2022/07/05 01:59:54;;;;;;;3.05;2.10;;;;;;;;;;5025844;28;20058;-63
2022/07/05 02:02:20;;;;;;;4.28;2.50;;;;;;;;;;5026734;28;20074;-62
2022/07/05 02:04:45;;;;;;;2.95;2.30;;;;;;;;;;5030966;28;20052;-63
2022/07/05 02:07:10;;;;;;;4.13;2.20;;;;;;;;;;5026098;28;20089;-63
2022/07/05 02:09:37;;;;;;;3.88;2.30;;;;;;;;;;5028340;28;20029;-63
2022/07/05 02:12:03;;;;;;;6.13;2.53;;;;;;;;;;5021726;28;20491;-63
2022/07/05 02:14:29;;;;;;;4.57;2.50;;;;;;;;;;5012021;28;20039;-62
2022/07/05 02:16:55;;;;;;;3.25;2.50;;;;;;;;;;5022173;28;20191;-63
2022/07/05 02:19:20;;;;;;;3.13;2.17;;;;;;;;;;5030502;28;20026;-62
2022/07/05 02:21:45;;;;;;;3.60;2.20;;;;;;;;;;5014688;28;20537;-63
2022/07/05 02:24:11;;;;;;;5.38;2.65;;;;;;;;;;5028168;28;20036;-63
2022/07/05 02:26:37;;;;;;;3.63;2.50;;;;;;;;;;5024970;28;20034;-62
2022/07/05 02:29:03;;;;;;;5.47;2.65;;;;;;;;;;5010077;28;20064;-63
2022/07/05 02:31:30;;;;;;;2.78;2.40;;;;;;;;;;5031313;28;20057;-62
2022/07/05 02:33:55;;;;;;;4.55;2.40;;;;;;;;;;5028174;28;20461;-62
2022/07/05 02:36:21;;;;;;;4.10;2.38;;;;;;;;;;5029225;28;20450;-62
2022/07/05 02:38:47;;;;;;;4.47;2.40;;;;;;;;;;5030844;28;20087;-62
2022/07/05 02:41:12;;;;;;;3.95;2.40;;;;;;;;;;5032902;28;20030;-62
2022/07/05 02:43:39;;;;;;;3.72;2.40;;;;;;;;;;5030625;28;20051;-62
2022/07/05 02:46:05;;;;;;;3.85;2.60;;;;;;;;;;5016175;28;20026;-63
2022/07/05 02:48:32;;;;;;;4.97;2.70;;;;;;;;;;5035336;28;20057;-62
2022/07/05 02:50:58;;;;;;;3.17;2.35;;;;;;;;;;5014823;28;20064;-62
2022/07/05 02:53:23;;;;;;;4.70;2.70;;;;;;;;;;5035486;28;20427;-63
2022/07/05 02:55:49;;;;;;;4.32;2.50;;;;;;;;;;5032892;28;20033;-63
2022/07/05 02:58:16;;;;;;;4.03;2.60;;;;;;;;;;5033859;28;20077;-63
2022/07/05 03:00:42;;;;;;;6.40;2.60;;;;;;;;;;5031404;28;20060;-62
2022/07/05 03:03:08;;;;;;;7.63;2.70;;;;;;;;;;5032609;28;20029;-63
2022/07/05 03:05:33;;;;;;;6.13;2.45;;;;;;;;;;5025761;28;20041;-62
2022/07/05 03:07:58;;;;;;;5.43;2.50;;;;;;;;;;5014292;28;20025;-62
2022/07/05 03:10:25;;;;;;;4.53;2.55;;;;;;;;;;5020620;28;20373;-62
2022/07/05 03:12:50;;;;;;;3.95;2.30;;;;;;;;;;5026456;28;20462;-63
2022/07/05 03:15:16;;;;;;;3.95;2.63;;;;;;;;;;5032012;28;20036;-62
2022/07/05 03:17:41;;;;;;;3.30;2.53;;;;;;;;;;5034034;28;20112;-63
2022/07/05 03:20:08;;;;;;;6.43;2.35;;;;;;;;;;5014907;28;20033;-63
2022/07/05 03:22:33;;;;;;;4.68;2.50;;;;;;;;;;5015111;28;20036;-62
2022/07/05 03:24:58;;;;;;;3.30;2.55;;;;;;;;;;5014085;28;20029;-62
2022/07/05 03:27:24;;;;;;;4.68;2.60;;;;;;;;;;5025593;28;20121;-63
2022/07/05 03:29:49;;;;;;;5.93;2.58;;;;;;;;;;5013423;28;20031;-62
2022/07/05 03:32:15;;;;;;;4.10;2.60;;;;;;;;;;5032753;28;20496;-63
2022/07/05 03:34:40;;;;;;;5.22;2.70;;;;;;;;;;5021746;28;20140;-63
2022/07/05 03:37:05;;;;;;;3.05;2.45;;;;;;;;;;5032340;28;20033;-63
2022/07/05 03:39:31;;;;;;;4.20;2.70;;;;;;;;;;5032032;28;20361;-63
2022/07/05 03:41:56;;;;;;;4.13;2.50;;;;;;;;;;5032655;28;20492;-63
2022/07/05 03:44:21;;;;;;;4.93;2.60;;;;;;;;;;5033454;28;20044;-63
2022/07/05 03:46:47;;;;;;;8.02;2.70;;;;;;;;;;5031367;28;20037;-63
2022/07/05 03:49:12;;;;;;;3.78;2.53;;;;;;;;;;5033373;28;20053;-62
2022/07/05 03:51:38;;;;;;;3.63;2.50;;;;;;;;;;5032650;28;20084;-62
2022/07/05 03:54:03;;;;;;;3.88;2.47;;;;;;;;;;5015684;28;20477;-63
2022/07/05 03:56:29;;;;;;;6.03;2.75;;;;;;;;;;5030951;28;20045;-63
2022/07/05 03:58:55;;;;;;;4.00;2.70;;;;;;;;;;5033831;28;20112;-62
2022/07/05 04:01:20;;;;;;;4.55;2.50;;;;;;;;;;5019356;28;20034;-63
2022/07/05 04:03:46;;;;;;;3.78;2.70;;;;;;;;;;5024652;28;20033;-63
2022/07/05 04:06:12;;;;;;;4.93;2.90;;;;;;;;;;5032186;28;20167;-62
2022/07/05 04:08:37;;;;;;;5.30;2.92;;;;;;;;;;5030999;28;20388;-63
2022/07/05 04:11:03;;;;;;;4.85;3.00;;;;;;;;;;5023679;28;20032;-62
2022/07/05 04:13:29;;;;;;;5.45;3.10;;;;;;;;;;5016079;28;20053;-63
2022/07/05 04:15:55;;;;;;;4.57;3.10;;;;;;;;;;5026041;28;20034;-63
2022/07/05 04:18:24;;;;;;;6.60;3.00;;;;;;;;;;5030380;28;20034;-62
2022/07/05 04:20:49;;;;;;;4.38;3.10;;;;;;;;;;5033957;28;20045;-62
2022/07/05 04:23:15;;;;;;;7.57;4.10;;;;;;;;;;5027667;28;20040;-62
2022/07/05 04:25:40;;;;;;;6.78;3.35;;;;;;;;;;5030357;28;20040;-62
2022/07/05 04:28:06;;;;;;;7.15;3.10;;;;;;;;;;5031947;28;20076;-63
2022/07/05 04:30:31;;;;;;;5.13;3.20;;;;;;;;;;5032260;28;20478;-62
2022/07/05 04:32:57;;;;;;;4.50;2.90;;;;;;;;;;5030188;28;20030;-63
2022/07/05 04:35:23;;;;;;;7.93;3.10;;;;;;;;;;5004297;28;20397;-62
2022/07/05 04:37:48;;;;;;;5.40;3.22;;;;;;;;;;5032536;28;20083;-62
2022/07/05 04:40:14;;;;;;;8.32;3.60;;;;;;;;;;5030578;28;20033;-63
2022/07/05 04:42:40;;;;;;;5.57;3.30;;;;;;;;;;5033511;28;20116;-62
2022/07/05 04:45:06;;;;;;;5.22;3.38;;;;;;;;;;5026689;28;20044;-62
2022/07/05 04:47:32;;;;;;;8.18;4.00;;;;;;;;;;5027383;28;20032;-62
2022/07/05 04:49:57;;;;;;;6.07;3.58;;;;;;;;;;5031490;28;20460;-63
2022/07/05 04:52:24;;;;;;;7.55;3.95;;;;;;;;;;5024731;28;20026;-62
2022/07/05 04:54:51;;;;;;;6.30;3.60;;;;;;;;;;5013577;28;21609;-62
2022/07/05 04:57:16;;;;;;;5.28;3.47;;;;;;;;;;5031186;28;20045;-63
2022/07/05 04:59:42;;;;;;;6.68;3.45;;;;;;;;;;5027618;28;20482;-60
2022/07/05 05:02:07;;;;;;;6.85;3.70;;;;;;;;;;5027291;28;20412;-60
2022/07/05 05:04:33;;;;;;;6.15;3.70;;;;;;;;;;5026478;28;20034;-60
2022/07/05 05:06:58;;;;;;;7.03;3.83;;;;;;;;;;5025905;28;20026;-61
2022/07/05 05:09:24;;;;;;;6.70;3.80;;;;;;;;;;5028862;28;20033;-60
2022/07/05 05:11:50;;;;;;;5.78;3.38;;;;;;;;;;5024106;28;20386;-59
2022/07/05 05:14:15;;;;;;;7.00;3.40;;;;;;;;;;5013288;28;20409;-63
2022/07/05 05:16:41;;;;;;;4.70;3.45;;;;;;;;;;5018804;28;20037;-61
2022/07/05 05:19:06;;;;;;;5.20;3.30;;;;;;;;;;5028578;28;20034;-61
2022/07/05 05:21:32;;;;;;;7.03;3.13;;;;;;;;;;5031153;28;20040;-60
2022/07/05 05:23:57;;;;;;;5.07;3.20;;;;;;;;;;5028331;28;20036;-61
2022/07/05 05:26:23;;;;;;;6.28;3.10;;;;;;;;;;5014463;28;20041;-61
2022/07/05 05:28:48;;;;;;;4.22;2.90;;;;;;;;;;5012426;28;20088;-61
2022/07/05 05:31:13;;;;;;;5.40;3.00;;;;;;;;;;5023115;28;20037;-61
2022/07/05 05:33:39;;;;;;;5.25;3.10;;;;;;;;;;5032439;28;20470;-60
2022/07/05 05:36:05;;;;;;;4.57;2.78;;;;;;;;;;5029932;28;20037;-61
2022/07/05 05:38:31;;;;;;;5.38;2.38;;;;;;;;;;5029848;28;20112;-61
2022/07/05 05:40:56;;;;;;;4.65;2.60;;;;;;;;;;5013820;28;20061;-61
2022/07/05 05:43:21;;;;;;;5.53;2.78;;;;;;;;;;5031427;28;20482;-61
2022/07/05 05:45:47;;;;;;;5.78;2.88;;;;;;;;;;5031570;28;20036;-60
2022/07/05 05:48:12;;;;;;;5.80;2.70;;;;;;;;;;5030832;28;20563;-61
2022/07/05 05:50:38;;;;;;;4.15;2.50;;;;;;;;;;5029484;28;20045;-61
2022/07/05 05:53:05;;;;;;;5.53;2.60;;;;;;;;;;5031106;28;20363;-60
2022/07/05 05:55:31;;;;;;;6.25;2.60;;;;;;;;;;5028410;28;20034;-61
2022/07/05 05:57:57;;;;;;;4.80;2.60;;;;;;;;;;5032033;28;20398;-60
2022/07/05 06:00:23;;;;;;;5.78;2.70;;;;;;;;;;5024925;28;20125;-60
2022/07/05 06:02:50;;;;;;;3.95;2.30;;;;;;;;;;5032065;28;20124;-62
2022/07/05 06:05:16;;;;;;;5.35;2.33;;;;;;;;;;5026552;28;20041;-61
2022/07/05 06:07:53;;;;;;;3.55;2.10;;;;;;;;;;5012005;28;20084;-61
2022/07/05 06:10:24;;;;;;;5.70;2.38;;;;;;;;;;5012930;28;20771;-61
2022/07/05 06:12:50;;;;;;;;;;;;;;;;;;5028372;28;20034;-60
2022/07/05 06:15:16;;;;;;;3.03;1.90;;;;;;;;;;5027955;28;19923;-61
2022/07/05 06:17:42;;;;;;;3.10;1.80;;;;;;;;;;5030441;28;20359;-61
2022/07/05 06:20:13;;;;;;;10.70;2.25;;;;;;;;;;5030156;28;20040;-61
2022/07/05 06:22:39;;;;;;;3.80;1.80;;;;;;;;;;5020223;28;20367;-61
2022/07/05 06:25:05;;;;;;;6.45;1.85;;;;;;;;;;5011485;28;20049;-61
2022/07/05 06:27:31;;;;;;;2.78;1.77;;;;;;;;;;5019801;28;20044;-61
2022/07/05 06:29:57;;;;;;;3.60;1.73;;;;;;;;;;5029052;28;20038;-61
2022/07/05 06:32:23;;;;;;;1.70;1.60;;;;;;;;;;5025077;28;20608;-61
2022/07/05 06:34:49;;;;;;;5.35;2.00;;;;;;;;;;5027571;28;20034;-60
2022/07/05 06:37:14;;;;;;;4.80;1.70;;;;;;;;;;5030431;28;20116;-61
2022/07/05 06:39:39;;;;;;;4.40;1.73;;;;;;;;;;5030317;28;20405;-61
2022/07/05 06:42:05;;;;;;;3.83;1.90;;;;;;;;;;5028412;28;20478;-60
2022/07/05 06:44:30;;;;;;;2.42;1.65;;;;;;;;;;5027031;28;20041;-61
2022/07/05 06:46:56;;;;;;;3.08;1.60;;;;;;;;;;5026989;28;20049;-62
2022/07/05 06:49:21;;;;;;;3.25;1.60;;;;;;;;;;5029610;28;20061;-62
2022/07/05 06:51:47;;;;;;;2.47;1.42;;;;;;;;;;5031474;28;20481;-61
2022/07/05 06:54:12;;;;;;;3.42;1.77;;;;;;;;;;5012456;28;20034;-62
2022/07/05 06:56:37;;;;;;;4.20;1.60;;;;;;;;;;5030630;28;20504;-61
2022/07/05 06:59:03;;;;;;;3.17;1.50;;;;;;;;;;5011040;28;20036;-61
2022/07/05 07:01:28;;;;;;;2.63;1.80;;;;;;;;;;5030426;28;20377;-61
2022/07/05 07:03:54;;;;;;;2.20;1.63;;;;;;;;;;5029411;28;20041;-62
2022/07/05 07:06:20;;;;;;;4.03;1.70;;;;;;;;;;5029231;28;20022;-61
2022/07/05 07:11:30;;;;;;;3.20;1.63;;;;;;;;;;5010180;28;20104;-62
2022/07/05 07:13:55;;;;;;;4.30;1.60;;;;;;;;;;5029443;28;20033;-60
2022/07/05 07:16:20;;;;;;;3.05;1.45;;;;;;;;;;5027617;28;20319;-60
2022/07/05 07:18:46;;;;;;;3.67;1.50;;;;;;;;;;5029872;28;20115;-60
2022/07/05 07:21:11;;;;;;;6.20;1.70;;;;;;;;;;5028273;28;20455;-60
2022/07/05 07:23:37;;;;;;;1.90;1.50;;;;;;;;;;5030076;28;20034;-60
2022/07/05 07:26:02;;;;;;;3.95;1.60;;;;;;;;;;5032645;28;20510;-60
2022/07/05 07:28:29;;;;;;;4.53;1.98;;;;;;;;;;5033173;28;20552;-61
2022/07/05 07:30:55;;;;;;;3.33;1.65;;;;;;;;;;5029264;28;20493;-61
2022/07/05 07:33:20;;;;;;;3.40;1.67;;;;;;;;;;5027165;28;20033;-60
2022/07/05 07:35:45;;;;;;;2.80;1.60;;;;;;;;;;5034735;28;20025;-60
2022/07/05 07:38:11;;;;;;;2.17;1.50;;;;;;;;;;5028139;28;20060;-60
2022/07/05 07:40:36;;;;;;;2.47;1.58;;;;;;;;;;5034118;28;20037;-60
2022/07/05 07:43:02;;;;;;;3.08;1.77;;;;;;;;;;5031574;28;20434;-60
2022/07/05 07:45:30;;;;;;;4.95;1.90;;;;;;;;;;5033353;28;20025;-60
2022/07/05 07:47:56;;;;;;;6.15;1.90;;;;;;;;;;5013677;28;20128;-60
2022/07/05 07:50:21;;;;;;;3.05;1.75;;;;;;;;;;5033858;28;20129;-61
2022/07/05 07:52:47;;;;;;;2.83;1.83;;;;;;;;;;5030406;28;20037;-60
2022/07/05 07:55:12;;;;;;;4.38;1.80;;;;;;;;;;5033015;28;20028;-59
2022/07/05 07:57:37;;;;;;;2.90;2.03;;;;;;;;;;5014757;28;20044;-59
2022/07/05 08:00:04;;;;;;;2.67;1.90;;;;;;;;;;5014272;28;20033;-59
2022/07/05 08:02:30;;;;;;;4.78;1.98;;;;;;;;;;5031554;28;20394;-62
2022/07/05 08:04:57;;;;;;;3.33;1.90;;;;;;;;;;5046835;28;20083;-59
2022/07/05 08:07:23;;;;;;;3.80;2.20;;;;;;;;;;5032202;28;20064;-59
2022/07/05 08:09:50;;;;;;;5.88;2.13;;;;;;;;;;5029294;28;20038;-59
2022/07/05 08:12:15;;;;;;;8.00;2.10;;;;;;;;;;5031823;28;20034;-60
2022/07/05 08:14:40;;;;;;;6.30;2.30;;;;;;;;;;5030667;28;20049;-61
2022/07/05 08:17:08;;;;;;;3.63;2.10;;;;;;;;;;5033127;28;20493;-60
2022/07/05 08:22:19;;;;;;;6.32;2.30;;;;;;;;;;5031564;28;20289;-60
2022/07/05 08:24:45;;;;;;;5.82;2.30;;;;;;;;;;5033735;28;20037;-60
2022/07/05 08:27:10;;;;;;;4.72;2.30;;;;;;;;;;5031032;28;20402;-61
2022/07/05 08:29:36;;;;;;;5.15;2.38;;;;;;;;;;5028448;28;20034;-60
2022/07/05 08:32:02;;;;;;;3.80;1.90;;;;;;;;;;5016909;28;20029;-60
2022/07/05 08:34:27;;;;;;;3.80;1.90;;;;;;;;;;5032807;28;20022;-60
2022/07/05 08:36:52;;;;;;;2.95;1.60;;;;;;;;;;5030127;28;20036;-60
2022/07/05 08:39:18;;;;;;;3.17;1.75;;;;;;;;;;5032743;28;20047;-61
2022/07/05 08:41:50;;;;;;;3.78;1.60;;;;;;;;;;5031990;28;20029;-60
2022/07/05 08:44:19;;;;;;;2.25;1.73;;;;;;;;;;5032414;28;20397;-64
2022/07/05 08:46:46;;;;;;;4.82;1.67;;;;;;;;;;5030958;28;20030;-61
2022/07/05 08:49:14;;;;;;;3.50;1.85;;;;;;;;;;5032696;28;20049;-61
2022/07/05 08:51:41;;;;;;;2.55;1.80;;;;;;;;;;5028327;28;20036;-62
2022/07/05 08:54:09;;;;;;;3.97;1.80;;;;;;;;;;5013140;28;20030;-65
2022/07/05 08:56:35;;;;;;;4.82;2.00;;;;;;;;;;5014455;28;20029;-61
2022/07/05 08:59:01;;;;;;;3.65;1.90;;;;;;;;;;5032355;28;20036;-60
2022/07/05 09:01:27;;;;;;;3.63;1.95;;;;;;;;;;5030319;28;20033;-60
2022/07/05 09:03:54;;;;;;;6.03;2.15;;;;;;;;;;5031960;28;20390;-61
2022/07/05 09:06:25;;;;;;;3.67;2.00;;;;;;;;;;5030250;28;20033;-63
2022/07/05 09:08:53;;;;;;;4.03;1.95;;;;;;;;;;5032856;28;20036;-61
2022/07/05 09:11:25;;;;;;;7.60;1.98;;;;;;;;;;5028586;28;20191;-63
2022/07/05 09:13:51;;;;;;;5.53;1.90;;;;;;;;;;5013017;28;20026;-61
2022/07/05 09:16:17;;;;;;;3.50;2.10;;;;;;;;;;5011787;28;20034;-62
2022/07/05 09:18:56;;;;;;;3.75;1.95;;;;;;;;;;5031292;28;20037;-61
2022/07/05 09:21:27;;;;;;;5.72;1.88;;;;;;;;;;5031366;28;20040;-60
2022/07/05 09:23:59;;;;;;;3.42;2.03;;;;;;;;;;5011377;28;20030;-60
2022/07/05 09:26:35;;;;;;;4.35;2.00;;;;;;;;;;5026880;28;20041;-64
2022/07/05 09:29:03;;;;;;;3.45;1.90;;;;;;;;;;5024029;28;20052;-63
2022/07/05 09:31:43;;;;;;;4.90;2.00;;;;;;;;;;5029431;28;20058;-60
2022/07/05 09:34:10;;;;;;;4.40;2.17;;;;;;;;;;5030666;28;20087;-61
2022/07/05 09:36:58;;;;;;;4.18;1.80;;;;;;;;;;5031368;28;20505;-62
2022/07/05 09:39:29;;;;;;;4.35;1.85;;;;;;;;;;5031060;28;20478;-61
2022/07/05 09:42:20;;;;;;;3.97;2.10;;;;;;;;;;5015772;28;20038;-61
2022/07/05 09:44:50;;;;;;;;;;;;;;;;;;5012499;28;20037;-61
2022/07/05 09:47:17;;;;;;;2.63;1.60;;;;;;;;;;5017517;28;19917;-61
2022/07/05 09:49:51;;;;;;;2.63;1.70;;;;;;;;;;5031119;28;20049;-60
2022/07/05 09:52:30;;;;;;;4.90;1.85;;;;;;;;;;5028026;28;20454;-60
2022/07/05 09:55:20;;;;;;;5.10;1.70;;;;;;;;;;5031252;28;20587;-60
2022/07/05 09:57:47;;;;;;;2.63;1.70;;;;;;;;;;5029329;28;20034;-60
2022/07/05 10:00:19;;;;;;;4.85;1.70;;;;;;;;;;5031182;28;20507;-61
2022/07/05 10:02:53;;;;;;;6.05;1.80;;;;;;;;;;5027253;28;20061;-59
2022/07/05 10:05:23;;;;;;;5.38;1.65;;;;;;;;;;5031150;28;20111;-59
2022/07/05 10:07:54;;;;;;;3.55;1.55;;;;;;;;;;5030879;28;20037;-60
2022/07/05 10:10:22;;;;;;;3.88;1.73;;;;;;;;;;5029967;28;20044;-61
2022/07/05 10:12:49;;;;;;;3.72;1.60;;;;;;;;;;5028429;28;20462;-61
2022/07/05 10:15:18;;;;;;;1.90;1.40;;;;;;;;;;5030480;28;20045;-62
2022/07/05 10:17:53;;;;;;;3.33;1.50;;;;;;;;;;5012126;28;20497;-61
2022/07/05 10:20:42;;;;;;;3.58;1.60;;;;;;;;;;5029876;28;20359;-63
2022/07/05 10:23:10;;;;;;;3.00;1.60;;;;;;;;;;5031777;28;20037;-61
2022/07/05 10:25:37;;;;;;;5.47;1.67;;;;;;;;;;5019500;28;20099;-61
2022/07/05 10:28:03;;;;;;;1.63;1.25;;;;;;;;;;5027567;28;20042;-62
2022/07/05 10:30:29;;;;;;;2.83;1.50;;;;;;;;;;5011845;28;20116;-61
2022/07/05 10:32:56;;;;;;;2.67;1.63;;;;;;;;;;5026052;28;20378;-62
2022/07/05 10:35:22;;;;;;;4.05;1.90;;;;;;;;;;5011081;28;20076;-62
2022/07/05 10:37:48;;;;;;;3.78;1.60;;;;;;;;;;5018479;28;20432;-62
2022/07/05 10:40:15;;;;;;;2.78;1.50;;;;;;;;;;5030880;28;20044;-61
2022/07/05 10:42:47;;;;;;;3.80;1.60;;;;;;;;;;5021177;28;20030;-61
2022/07/05 10:45:26;;;;;;;3.75;1.67;;;;;;;;;;5027100;28;20029;-61
2022/07/05 10:48:13;;;;;;;5.80;1.60;;;;;;;;;;5024761;28;20045;-61
2022/07/05 10:50:57;;;;;;;4.32;1.70;;;;;;;;;;5014920;28;20029;-62
2022/07/05 10:53:24;;;;;;;5.10;1.60;;;;;;;;;;5030587;28;20102;-62
2022/07/05 10:56:18;;;;;;;2.25;1.50;;;;;;;;;;5028364;28;20034;-61
2022/07/05 10:58:45;;;;;;;1.92;1.50;;;;;;;;;;5017070;28;20076;-61
2022/07/05 11:01:20;;;;;;;2.55;1.60;;;;;;;;;;5032755;28;20104;-63
2022/07/05 11:03:58;;;;;;;3.63;1.58;;;;;;;;;;5032517;28;20041;-62
2022/07/05 11:06:23;;;;;;;4.53;1.88;;;;;;;;;;5034179;28;20117;-62
2022/07/05 11:09:02;;;;;;;2.58;1.60;;;;;;;;;;5033043;28;20501;-62
2022/07/05 11:11:33;;;;;;;3.90;1.70;;;;;;;;;;5034162;28;20075;-61
2022/07/05 11:14:00;;;;;;;2.58;1.73;;;;;;;;;;5034275;28;20038;-60
2022/07/05 11:16:30;;;;;;;3.80;1.63;;;;;;;;;;5034379;28;20036;-62
2022/07/05 11:19:11;;;;;;;3.05;1.90;;;;;;;;;;5033835;28;20029;-61
2022/07/05 11:21:38;;;;;;;;;;;;;;;;;;5033285;28;20045;-60
2022/07/05 11:24:19;;;;;;;3.38;2.00;;;;;;;;;;5028588;28;19913;-61
2022/07/05 11:26:47;;;;;;;3.45;1.90;;;;;;;;;;5015040;28;20034;-61
2022/07/05 11:29:51;;;;;;;4.93;1.75;;;;;;;;;;5022208;28;20116;-62
2022/07/05 11:32:23;;;;;;;2.40;1.70;;;;;;;;;;5024898;28;20086;-61
2022/07/05 11:34:51;;;;;;;3.80;1.80;;;;;;;;;;5014818;28;20108;-62
2022/07/05 11:37:18;;;;;;;6.00;1.98;;;;;;;;;;5030034;28;20448;-62
2022/07/05 11:39:46;;;;;;;3.15;1.80;;;;;;;;;;5034039;28;20053;-61
2022/07/05 11:42:19;;;;;;;5.25;1.90;;;;;;;;;;5033453;28;20045;-61
2022/07/05 11:44:49;;;;;;;4.55;1.70;;;;;;;;;;5030903;28;20033;-60
2022/07/05 11:47:16;;;;;;;2.85;1.98;;;;;;;;;;5021421;28;20030;-61
2022/07/05 11:49:53;;;;;;;4.43;2.10;;;;;;;;;;5031909;28;20045;-61
2022/07/05 11:52:25;;;;;;;3.78;1.90;;;;;;;;;;5032061;28;20061;-62
2022/07/05 11:54:51;;;;;;;5.32;2.00;;;;;;;;;;5033480;28;20124;-59
2022/07/05 11:57:18;;;;;;;3.30;1.90;;;;;;;;;;5015619;28;20034;-61
2022/07/05 11:59:44;;;;;;;3.72;1.90;;;;;;;;;;5030691;28;20088;-61
2022/07/05 12:02:09;;;;;;;4.18;1.92;;;;;;;;;;5015108;28;20026;-61
2022/07/05 12:04:35;;;;;;;4.82;1.83;;;;;;;;;;5031622;28;20029;-60
2022/07/05 12:07:01;;;;;;;2.33;2.00;;;;;;;;;;5027920;28;20029;-61
2022/07/05 12:12:42;;;;;;;4.40;1.88;;;;;;;;;;5013047;28;20034;-62
2022/07/05 12:15:02;;;;;;;3.00;1.80;;;;;;;;;;5033825;28;20044;-60
2022/07/05 12:17:28;;;;;;;3.90;1.98;;;;;;;;;;5030163;28;20037;-60
2022/07/05 12:19:57;;;;;;;3.47;1.73;;;;;;;;;;5028720;28;20032;-61
2022/07/05 12:22:32;;;;;;;2.03;1.63;;;;;;;;;;5032276;28;20030;-61
2022/07/05 12:24:59;;;;;;;3.45;1.90;;;;;;;;;;5026590;28;20029;-61
2022/07/05 12:27:26;;;;;;;4.70;1.70;;;;;;;;;;5032420;28;20478;-61
2022/07/05 12:29:52;;;;;;;3.40;1.75;;;;;;;;;;5032144;28;20046;-62
2022/07/05 12:32:17;;;;;;;5.25;1.77;;;;;;;;;;5031178;28;20026;-61
2022/07/05 12:34:42;;;;;;;3.90;1.77;;;;;;;;;;5014310;28;20034;-60
2022/07/05 12:37:08;;;;;;;3.45;1.70;;;;;;;;;;5033374;28;20040;-60
2022/07/05 12:39:34;;;;;;;2.67;2.00;;;;;;;;;;5032353;28;20219;-61
2022/07/05 12:42:00;;;;;;;4.00;1.60;;;;;;;;;;5030477;28;20458;-61
2022/07/05 12:44:25;;;;;;;2.50;1.65;;;;;;;;;;5032279;28;20037;-61
2022/07/05 12:46:51;;;;;;;5.22;1.90;;;;;;;;;;5030138;28;20057;-61
2022/07/05 12:49:17;;;;;;;1.95;1.80;;;;;;;;;;5023076;28;20065;-65
2022/07/05 12:51:44;;;;;;;4.20;1.90;;;;;;;;;;5031956;28;20029;-61
2022/07/05 13:00:06;;;;;;;4.05;2.22;;;;;;;;;;5029040;28;20043;-61
2022/07/05 13:02:50;;;;;;;2.67;1.60;;;;;;;;;;5013301;28;20111;-62
2022/07/05 13:05:25;;;;;;;2.88;1.80;;;;;;;;;;5032718;28;20029;-62
2022/07/05 13:07:52;;;;;;;4.05;2.00;;;;;;;;;;5030748;28;20037;-63
2022/07/05 13:10:23;;;;;;;5.35;1.70;;;;;;;;;;5032120;28;20403;-62
2022/07/05 13:12:49;;;;;;;8.15;1.85;;;;;;;;;;5032004;28;20035;-63
2022/07/05 13:15:15;;;;;;;4.55;1.90;;;;;;;;;;5032532;28;20108;-64
2022/07/05 13:17:41;;;;;;;2.88;1.60;;;;;;;;;;5010413;28;20045;-64
2022/07/05 13:20:07;;;;;;;3.88;1.75;;;;;;;;;;5030637;28;20146;-64
2022/07/05 13:22:33;;;;;;;3.25;1.85;;;;;;;;;;5023407;28;20034;-65
2022/07/05 13:24:58;;;;;;;2.78;1.90;;;;;;;;;;5024524;28;20670;-64
2022/07/05 13:27:23;;;;;;;3.20;2.00;;;;;;;;;;5030554;28;20026;-65
2022/07/05 13:29:49;;;;;;;3.90;1.90;;;;;;;;;;5030896;28;20108;-63
2022/07/05 13:32:16;;;;;;;3.72;2.10;;;;;;;;;;5028603;28;20028;-64
2022/07/05 13:34:42;;;;;;;2.50;2.00;;;;;;;;;;5032233;28;20037;-63
2022/07/05 13:37:08;;;;;;;3.53;1.92;;;;;;;;;;5018716;28;20033;-64
2022/07/05 13:39:33;;;;;;;3.25;1.90;;;;;;;;;;5011585;28;20033;-63
2022/07/05 13:41:59;;;;;;;3.38;1.88;;;;;;;;;;5023694;28;20418;-63
2022/07/05 13:44:24;;;;;;;3.33;1.77;;;;;;;;;;5031607;28;20037;-62
2022/07/05 13:46:50;;;;;;;3.13;2.00;;;;;;;;;;5030460;28;20029;-62
2022/07/05 13:49:15;;;;;;;4.97;2.10;;;;;;;;;;5026862;28;20042;-63
2022/07/05 13:51:41;;;;;;;4.00;1.95;;;;;;;;;;5031781;28;20163;-64
2022/07/05 13:54:07;;;;;;;4.40;1.90;;;;;;;;;;5028615;28;20033;-63
2022/07/05 13:56:32;;;;;;;2.92;1.70;;;;;;;;;;5029736;28;20195;-62
2022/07/05 13:58:59;;;;;;;7.35;2.10;;;;;;;;;;5017312;28;20048;-63
2022/07/05 14:01:29;;;;;;;3.40;1.77;;;;;;;;;;5030156;28;20044;-62
2022/07/05 14:03:56;;;;;;;4.20;2.00;;;;;;;;;;5028057;28;20435;-62
2022/07/05 14:06:22;;;;;;;3.55;1.88;;;;;;;;;;5031086;28;20034;-62
2022/07/05 14:08:47;;;;;;;4.10;1.98;;;;;;;;;;5030401;28;20030;-63
2022/07/05 14:11:13;;;;;;;4.82;2.00;;;;;;;;;;5029778;28;20029;-62
2022/07/05 14:13:39;;;;;;;6.75;2.00;;;;;;;;;;5029336;28;20030;-63
2022/07/05 14:16:04;;;;;;;3.42;2.00;;;;;;;;;;5017825;28;20060;-63
2022/07/05 14:18:30;;;;;;;4.20;2.10;;;;;;;;;;5025601;28;20065;-63
2022/07/05 14:20:55;;;;;;;5.13;2.20;;;;;;;;;;5022272;28;20729;-63
2022/07/05 14:23:21;;;;;;;6.65;2.05;;;;;;;;;;5029135;28;20100;-63
2022/07/05 14:25:47;;;;;;;5.50;2.20;;;;;;;;;;5029805;28;20064;-63
2022/07/05 14:28:12;;;;;;;4.60;1.98;;;;;;;;;;5031232;28;20034;-63
2022/07/05 14:30:41;;;;;;;5.93;2.00;;;;;;;;;;5027324;28;20029;-64
2022/07/05 14:33:06;;;;;;;4.45;2.13;;;;;;;;;;5031538;28;20034;-64
2022/07/05 14:35:33;;;;;;;3.35;2.20;;;;;;;;;;5023381;28;20835;-63
2022/07/05 14:37:59;;;;;;;4.63;1.95;;;;;;;;;;5025879;28;20080;-64
2022/07/05 14:40:25;;;;;;;4.78;2.08;;;;;;;;;;5030480;28;20057;-64
2022/07/05 14:42:51;;;;;;;4.97;1.88;;;;;;;;;;5010087;28;20489;-63
2022/07/05 14:45:18;;;;;;;4.53;2.15;;;;;;;;;;5028178;28;20025;-65
2022/07/05 14:47:43;;;;;;;5.20;2.10;;;;;;;;;;5025755;28;20041;-63
2022/07/05 14:50:08;;;;;;;4.25;2.10;;;;;;;;;;5031374;28;20022;-64
2022/07/05 14:52:34;;;;;;;8.35;2.50;;;;;;;;;;5030856;28;20029;-64
2022/07/05 14:55:00;;;;;;;3.80;2.00;;;;;;;;;;5039943;28;20032;-63
2022/07/05 14:57:25;;;;;;;4.63;2.20;;;;;;;;;;5030307;28;20037;-63